Latest Weather Observations for Wadeye (Port Keats)

IDD60801

Issued at 10:05 pm CST Thursday 24 April 2014 (issued every 30 minutes, with the page automatically refreshed every 10 minutes)

About weather observations | Map of weather stations | Latest weather observations for NT | Other Formats
Station Details ID: 014948 Name: PORT KEATS AIRPORT Lat: -14.25 Lon: 129.53 Height: 28.0 m
Data from the previous 72 hours. | See also: Recent months at Wadeye (Port Keats)
Date/Time
CST
Temp
°C
App
Temp
°C
Dew
Point
Rel
Hum
%
Delta-T
°C
Wind Press
QNH
hPa
Press
MSL
hPa
Rain
since 9 am
mm
Dir
 
Spd
km/h
Gust
km/h
Spd
kts
Gust
kts
24/10:00pm 25.3 28.2 21.0 77 2.8 S 7 9 4 5 1008.4 - 0.0
24/09:30pm 25.7 28.6 21.1 76 3.0 SSW 7 11 4 6 1008.3 - 0.0
24/09:00pm 26.3 29.3 21.3 74 3.3 SSW 7 11 4 6 1008.2 1008.0 0.0
24/08:30pm 27.4 30.0 20.5 66 4.5 SSW 7 11 4 6 1007.8 - 0.0
24/08:00pm 27.8 30.1 20.6 65 4.7 SSW 9 11 5 6 1007.4 - 0.0
24/07:30pm 28.1 30.8 20.6 63 5.0 SSW 7 11 4 6 1007.0 - 0.0
24/07:00pm 28.8 31.6 20.8 62 5.3 SW 7 9 4 5 1006.7 - 0.0
24/06:30pm 30.5 32.9 20.1 53 6.9 SSW 7 9 4 5 1006.3 - 0.0
24/06:00pm 32.0 33.8 19.6 47 8.2 SSW 9 15 5 8 1006.1 1005.9 0.0
24/05:30pm 33.8 33.4 16.2 35 11.1 SE 13 17 7 9 1005.7 - 0.0
24/05:00pm 34.0 34.1 16.4 35 11.2 SE 11 19 6 10 1005.7 - 0.0
24/04:30pm 33.7 32.4 15.7 34 11.3 SE 17 22 9 12 1005.7 - 0.0
24/04:00pm 34.6 33.0 16.0 33 11.7 E 19 26 10 14 1005.6 - 0.0
24/03:30pm 34.3 32.4 15.2 31 11.9 SE 19 28 10 15 1005.8 - 0.0
24/03:00pm 34.7 33.7 15.6 32 12.0 SSE 15 24 8 13 1005.9 1005.7 0.0
24/02:30pm 34.7 33.7 15.6 32 12.0 SSE 15 20 8 11 1006.3 - 0.0
24/02:00pm 34.5 32.7 15.4 32 11.9 SE 19 30 10 16 1006.8 - 0.0
24/01:30pm 34.0 34.6 18.5 40 10.1 SE 13 20 7 11 1007.1 - 0.0
24/01:00pm 33.9 33.7 18.4 40 10.1 SSE 17 26 9 14 1007.8 - 0.0
24/12:30pm 32.7 33.4 18.8 43 9.1 SE 13 20 7 11 1008.4 - 0.0
24/12:00pm 32.4 34.2 20.3 48 8.1 ESE 11 15 6 8 1009.1 1008.9 0.0
24/11:30am 31.4 32.7 19.4 49 7.9 SE 11 17 6 9 1009.8 - 0.0
24/11:00am 30.6 32.0 19.6 51 7.2 SE 11 17 6 9 1010.3 - 0.0
24/10:30am 29.9 31.2 19.3 53 6.9 ESE 11 15 6 8 1010.3 - 0.0
24/10:00am 29.0 29.3 17.8 50 7.1 ESE 13 19 7 10 1010.2 - 0.0
24/09:30am 28.7 29.0 16.9 48 7.4 SE 11 13 6 7 1010.0 - 0.0
24/09:00am 28.1 27.3 16.1 48 7.4 SE 15 19 8 10 1009.7 1009.5 0.0
24/08:30am 27.5 26.8 16.5 51 6.8 SE 15 19 8 10 1009.4 - 0.0
24/08:00am 27.3 26.5 16.0 50 7.0 SE 15 19 8 10 1008.9 - 0.0
24/07:30am 26.6 26.2 17.1 56 5.9 SE 15 19 8 10 1008.4 - 0.0
24/07:00am 22.6 24.9 19.8 84 1.8 SSE 7 11 4 6 1008.0 - 0.0
24/06:30am 22.3 25.0 20.2 88 1.4 S 6 7 3 4 1007.7 - 0.0
24/06:00am 22.8 25.5 20.3 86 1.6 S 6 7 3 4 1007.4 1007.2 0.0
24/05:30am 24.1 26.2 20.2 79 2.5 S 9 11 5 6 1007.2 - 0.0
24/05:00am 24.7 27.2 20.2 76 2.9 S 7 9 4 5 1007.1 - 0.0
24/04:30am 24.6 26.8 19.7 74 3.2 S 7 11 4 6 1007.1 - 0.0
24/04:00am 25.1 27.3 19.5 71 3.6 S 7 11 4 6 1007.0 - 0.0
24/03:30am 24.4 26.0 19.2 73 3.3 S 9 11 5 6 1006.9 - 0.0
24/03:00am 23.6 25.2 19.1 76 2.9 SSW 9 13 5 7 1007.0 1006.8 0.0
24/02:30am 24.8 26.1 17.5 64 4.6 S 7 11 4 6 1007.2 - 0.0
24/02:00am 23.0 24.7 20.1 84 1.9 SW 11 13 6 7 1007.6 - 0.0
24/01:30am 22.2 24.8 20.1 88 1.4 S 6 9 3 5 1008.1 - 0.0
24/01:00am 23.8 26.5 20.3 81 2.3 SE 6 7 3 4 1008.5 - 0.0
24/12:30am 23.7 26.7 20.8 84 1.9 ESE 6 13 3 7 1008.9 - 0.0
24/12:00am 23.5 27.4 20.4 83 2.0 S 0 0 0 0 1008.9 1008.7 0.0
 
Date/Time
CST
Temp
°C
App
Temp
°C
Dew
Point
Rel
Hum
%
Delta-T
°C
Wind Press
QNH
hPa
Press
MSL
hPa
Rain
since 9 am
mm
Dir
 
Spd
km/h
Gust
km/h
Spd
kts
Gust
kts
23/11:30pm 23.6 26.5 20.7 84 1.9 S 6 7 3 4 1009.1 - 0.0
23/11:00pm 24.0 27.2 21.3 85 1.8 SSW 6 7 3 4 1009.2 - 0.0
23/10:30pm 24.2 27.6 21.7 86 1.7 S 6 7 3 4 1009.2 - 0.0
23/10:00pm 24.2 27.5 21.9 87 1.5 S 7 9 4 5 1009.1 - 0.0
23/09:30pm 24.4 27.9 22.1 87 1.5 SSW 7 9 4 5 1008.8 - 0.0
23/09:00pm 24.7 28.1 22.0 85 1.8 SSW 7 7 4 4 1008.7 1008.5 0.0
23/08:30pm 25.2 28.7 21.9 82 2.2 SSW 6 7 3 4 1008.3 - 0.0
23/08:00pm 25.9 30.2 21.1 75 3.2 CALM 0 0 0 0 1007.9 - 0.0
23/07:30pm 27.0 31.1 20.8 69 4.1 CALM 0 0 0 0 1007.6 - 0.0
23/07:00pm 28.2 32.3 20.7 63 5.0 CALM 0 0 0 0 1007.1 - 0.0
23/06:30pm 30.9 34.6 19.9 52 7.2 CALM 0 0 0 0 1006.7 - 0.0
23/06:00pm 32.0 35.7 19.9 48 8.0 CALM 0 2 0 1 1006.3 1006.1 0.0
23/05:30pm 32.6 34.3 18.4 43 9.2 SSW 7 11 4 6 1006.0 - 0.0
23/05:00pm 33.6 34.4 17.3 37 10.4 SSW 9 13 5 7 1005.8 - 0.0
23/04:30pm 34.1 33.7 15.1 32 11.8 S 11 19 6 10 1005.8 - 0.0
23/04:00pm 34.9 32.6 14.2 28 12.7 SSE 19 26 10 14 1005.8 - 0.0
23/03:30pm 34.8 32.7 14.7 30 12.5 SSE 19 26 10 14 1006.1 - 0.0
23/03:00pm 35.4 33.7 14.6 28 12.9 SE 17 32 9 17 1006.4 1006.2 0.0
23/02:30pm 34.7 32.7 14.0 28 12.7 S 17 26 9 14 1006.8 - 0.0
23/02:00pm 34.4 32.5 15.3 31 11.9 SE 19 28 10 15 1007.3 - 0.0
23/01:30pm 34.7 33.5 15.1 31 12.2 SE 15 24 8 13 1007.7 - 0.0
23/01:00pm 34.3 32.8 15.2 31 11.9 SE 17 24 9 13 1008.2 - 0.0
23/12:30pm 33.7 32.2 15.2 33 11.5 SE 17 24 9 13 1008.8 - 0.0
23/12:00pm 33.3 32.2 15.3 34 11.2 ESE 15 22 8 12 1009.5 1009.3 0.0
23/11:30am 32.5 30.2 14.6 34 11.0 SE 20 30 11 16 1010.0 - 0.0
23/11:00am 32.2 30.1 14.8 35 10.7 ESE 19 26 10 14 1010.3 - 0.0
23/10:30am 31.2 28.8 14.4 36 10.2 SE 20 28 11 15 1010.4 - 0.0
23/10:00am 30.5 28.4 13.7 35 10.1 SE 17 24 9 13 1010.5 - 0.0
23/09:30am 29.8 27.2 13.1 36 9.9 SSE 19 22 10 12 1010.3 - 0.0
23/09:00am 28.3 27.4 13.8 41 8.7 SSE 11 17 6 9 1010.2 1010.0 0.0
23/08:30am 28.1 27.2 13.6 41 8.6 SSE 11 17 6 9 1009.9 - 0.0
23/08:00am 26.5 26.5 15.2 49 6.8 SSE 9 13 5 7 1009.6 - 0.0
23/07:30am 25.2 25.2 15.2 54 6.0 SSE 9 13 5 7 1009.4 - 0.0
23/07:00am 24.8 24.8 15.1 54 5.8 S 9 13 5 7 1008.9 - 0.0
23/06:30am 25.2 25.1 14.9 52 6.2 S 9 11 5 6 1008.8 - 0.0
23/06:00am 25.7 25.8 15.4 53 6.2 S 9 13 5 7 1008.9 1008.7 0.0
23/05:30am 25.9 26.0 15.6 53 6.3 S 9 15 5 8 1008.8 - 0.0
23/05:00am 25.5 26.0 16.6 58 5.5 S 9 15 5 8 1008.6 - 0.0
23/04:30am 23.9 24.9 16.9 65 4.3 S 7 11 4 6 1008.6 - 0.0
23/04:00am 24.7 25.4 16.2 59 5.2 S 7 9 4 5 1008.5 - 0.0
23/03:30am 24.0 25.1 17.0 65 4.3 S 7 9 4 5 1008.6 - 0.0
23/03:00am 25.4 26.1 17.1 60 5.2 S 9 13 5 7 1008.8 1008.6 0.0
23/02:30am 23.8 25.2 18.7 73 3.2 S 9 13 5 7 1009.2 - 0.0
23/02:00am 22.0 24.2 19.7 87 1.5 S 7 11 4 6 1009.3 - 0.0
23/01:30am 21.9 24.2 19.8 88 1.3 SSW 7 9 4 5 1009.7 - 0.0
23/01:00am 22.0 24.1 19.4 85 1.7 SSW 7 7 4 4 1010.1 - 0.0
23/12:30am 22.8 26.2 19.4 81 2.2 CALM 0 0 0 0 1010.2 - 0.0
23/12:00am 23.4 27.0 19.8 80 2.3 CALM 0 0 0 0 1010.4 1010.2 0.0
 
Date/Time
CST
Temp
°C
App
Temp
°C
Dew
Point
Rel
Hum
%
Delta-T
°C
Wind Press
QNH
hPa
Press
MSL
hPa
Rain
since 9 am
mm
Dir
 
Spd
km/h
Gust
km/h
Spd
kts
Gust
kts
22/11:30pm 25.1 28.6 19.5 71 3.6 CALM 0 6 0 3 1010.5 - 0.0
22/11:00pm 25.5 28.6 19.4 69 3.9 NE 2 7 1 4 1010.3 - 0.0
22/10:30pm 26.9 29.1 17.4 56 6.0 SSE 2 9 1 5 1010.3 - 0.0
22/10:00pm 27.0 28.3 17.5 56 6.0 S 7 11 4 6 1010.3 - 0.0
22/09:30pm 27.2 27.9 17.1 54 6.3 S 9 11 5 6 1010.2 - 0.0
22/09:00pm 27.1 28.8 18.4 59 5.6 S 7 11 4 6 1009.9 1009.7 0.0
22/08:30pm 28.0 29.5 18.1 55 6.3 S 7 13 4 7 1009.5 - 0.0
22/08:00pm 28.6 29.5 17.5 51 7.0 S 9 11 5 6 1009.2 - 0.0
22/07:30pm 28.9 30.3 17.7 50 7.1 S 7 9 4 5 1008.8 - 0.0
22/07:00pm 28.8 30.7 18.9 55 6.4 SSW 7 9 4 5 1008.5 - 0.0
22/06:30pm 30.9 32.9 17.9 45 8.3 SSW 4 7 2 4 1008.3 - 0.0
22/06:00pm 32.7 33.9 17.3 39 9.9 SSW 7 13 4 7 1007.9 1007.7 0.0
22/05:30pm 33.9 33.0 14.9 32 11.8 SSE 13 19 7 10 1007.6 - 0.0
22/05:00pm 34.3 32.8 15.2 31 11.9 SE 17 24 9 13 1007.3 - 0.0
22/04:30pm 34.6 33.6 15.5 32 12.0 SE 15 22 8 12 1007.3 - 0.0
22/04:00pm 34.8 33.5 15.7 32 12.0 SE 17 20 9 11 1007.2 - 0.0
22/03:30pm 34.6 33.0 15.0 31 12.2 ESE 17 24 9 13 1007.4 - 0.0
22/03:00pm 34.6 32.4 14.5 30 12.4 ESE 19 28 10 15 1007.8 1007.6 0.0
22/02:30pm 34.6 32.3 14.0 29 12.6 ESE 19 26 10 14 1008.3 - 0.0
22/02:00pm 34.2 31.7 13.6 29 12.5 E 19 28 10 15 1008.6 - 0.0
22/01:30pm 34.4 32.0 14.3 30 12.4 SE 20 32 11 17 1009.2 - 0.0
22/01:00pm 33.8 33.7 17.9 38 10.3 ESE 15 26 8 14 1009.6 - 0.0
22/12:30pm 33.5 33.3 17.6 38 10.2 ESE 15 22 8 12 1010.1 - 0.0
22/12:00pm 32.6 32.9 18.0 41 9.4 ESE 13 20 7 11 1010.9 1010.7 0.0
22/11:30am 32.2 32.3 18.4 44 8.9 ESE 15 20 8 11 1011.7 - 0.0
22/11:00am 31.7 31.6 18.7 46 8.4 ESE 17 22 9 12 1012.1 - 0.0
22/10:30am 31.2 30.9 18.2 46 8.4 ESE 17 26 9 14 1012.3 - 0.0
22/10:00am 30.8 31.4 18.5 47 7.9 ESE 13 20 7 11 1012.3 - 0.0
22/09:30am 29.8 31.0 19.8 55 6.6 SE 13 19 7 10 1012.0 - 0.0
22/09:00am 29.1 28.9 18.5 52 6.8 SE 17 24 9 13 1011.8 1011.6 0.0
22/08:30am 28.6 30.3 20.9 63 5.1 SE 13 17 7 9 1011.5 - 0.0
22/08:00am 27.0 30.8 22.8 78 2.9 S 7 11 4 6 1011.3 - 0.0
22/07:30am 25.6 29.2 23.1 86 1.7 S 9 13 5 7 1011.0 - 0.0
22/07:00am 25.2 29.0 22.7 86 1.7 S 7 11 4 6 1010.7 - 0.0
22/06:30am 25.7 29.2 22.8 84 2.0 S 9 11 5 6 1010.4 - 0.0
22/06:00am 25.9 29.5 23.0 84 2.0 S 9 13 5 7 1010.1 1009.9 0.0
22/05:30am 25.6 29.7 23.3 87 1.6 S 7 11 4 6 1009.8 - 0.0
22/05:00am 25.8 30.0 23.5 87 1.6 S 7 11 4 6 1009.6 - 0.0
22/04:30am 25.7 29.8 23.2 86 1.7 S 7 11 4 6 1009.7 - 0.0
22/04:00am 25.9 30.1 23.4 86 1.7 SSW 7 11 4 6 1009.8 - 0.0
22/03:30am 25.8 29.8 23.1 85 1.8 SSW 7 13 4 7 1009.8 - 0.0
22/03:00am 26.1 29.8 23.2 84 2.0 S 9 11 5 6 1009.9 1009.7 0.0
22/02:30am 26.2 30.3 23.3 84 2.0 S 7 11 4 6 1010.2 - 0.0
22/02:00am 26.0 30.0 23.1 84 2.0 SSW 7 11 4 6 1010.4 - 0.0
22/01:30am 25.5 29.4 23.0 86 1.7 SSW 7 11 4 6 1010.7 - 0.0
22/01:00am 25.5 29.1 23.0 86 1.7 SSW 9 11 5 6 1010.9 - 0.0
22/12:30am 25.2 29.1 22.9 87 1.6 SSW 7 11 4 6 1011.1 - 0.0
22/12:00am 25.2 29.1 22.9 87 1.6 S 7 9 4 5 1011.2 1011.0 0.0
 
Date/Time
CST
Temp
°C
App
Temp
°C
Dew
Point
Rel
Hum
%
Delta-T
°C
Wind Press
QNH
hPa
Press
MSL
hPa
Rain
since 9 am
mm
Dir
 
Spd
km/h
Gust
km/h
Spd
kts
Gust
kts
21/11:30pm 24.5 29.2 22.6 89 1.3 SSW 2 6 1 3 1011.3 - 0.0
21/11:00pm 24.2 27.9 22.3 89 1.3 SSW 6 7 3 4 1011.4 - 0.0
21/10:30pm 24.4 27.7 21.9 86 1.7 SSW 7 7 4 4 1011.2 - 0.0

Other Formats:

Comma delimited format used in spreadsheet applications
http://www.bom.gov.au/fwo/IDD60801/IDD60801.95111.axf

JavaScript Object Notation format (JSON) in row-major order
http://www.bom.gov.au/fwo/IDD60801/IDD60801.95111.json